Time;durP1;ratioP1;P1;durP2;ratioP2;P2;SDS_P1;SDS_P2;PMS_P1;PMS_P2;Temp;Humidity;BMP_temperature;BMP_pressure;BME280_temperature;BME280_humidity;BME280_pressure;Samples;Min_cycle;Max_cycle;Signal;HPM_P1;HPM_P2
2022/01/15 00:01:28;;;;;;;;;91.25;81.75;;;;;6.74;60.98;102726.28;5056751;28;45347;-86
2022/01/15 00:03:53;;;;;;;;;88.00;81.25;;;;;6.69;61.26;102725.34;5056573;28;45248;-86
2022/01/15 00:06:19;;;;;;;;;96.00;88.00;;;;;6.97;61.01;102767.88;5058778;28;45368;-86
2022/01/15 00:08:44;;;;;;;;;111.67;95.67;;;;;6.48;61.45;102680.22;5056166;28;46973;-86
2022/01/15 00:11:10;;;;;;;;;104.00;94.50;;;;;6.90;61.61;102756.34;5058507;28;45195;-86
2022/01/15 00:13:38;;;;;;;;;101.67;89.00;;;;;6.71;61.46;102720.06;5055600;28;45533;-85
2022/01/15 00:16:10;;;;;;;;;95.33;90.67;;;;;6.48;61.16;102682.88;5056910;28;45599;-86
2022/01/15 00:19:02;;;;;;;;;103.67;96.67;;;;;6.94;61.54;102759.91;5055661;28;48526;-86
2022/01/15 00:21:28;;;;;;;;;121.67;111.00;;;;;6.69;61.69;102712.09;5052778;28;45570;-86
2022/01/15 00:23:53;;;;;;;;;109.00;98.00;;;;;6.33;61.47;102647.50;5047870;28;45391;-86
2022/01/15 00:26:19;;;;;;;;;125.33;117.00;;;;;6.19;61.85;102622.72;5058281;28;45241;-86
2022/01/15 00:28:44;;;;;;;;;135.00;122.33;;;;;6.17;61.46;102623.59;5056979;28;46208;-86
2022/01/15 00:31:10;;;;;;;;;125.67;111.67;;;;;6.68;61.49;102718.28;5056610;28;45504;-86
2022/01/15 00:33:35;;;;;;;;;131.67;123.00;;;;;6.47;61.19;102676.69;5052740;28;45498;-86
2022/01/15 00:36:01;;;;;;;;;126.33;118.00;;;;;6.64;61.46;102705.03;5035815;28;45371;-86
2022/01/15 00:38:26;;;;;;;;;127.67;116.33;;;;;6.87;61.51;102735.16;5046035;28;47908;-86
2022/01/15 00:40:52;;;;;;;;;128.33;121.00;;;;;6.78;61.29;102727.16;5057286;28;45425;-86
2022/01/15 00:43:18;;;;;;;;;121.33;111.33;;;;;6.77;61.40;102730.69;5055180;28;45428;-86
2022/01/15 00:45:43;;;;;;;;;89.67;78.33;;;;;6.66;61.28;102703.28;5040555;28;45453;-86
2022/01/15 00:48:09;;;;;;;;;116.67;104.33;;;;;6.51;61.49;102673.19;5015781;28;48197;-86
2022/01/15 00:50:34;;;;;;;;;100.00;95.33;;;;;6.81;61.19;102727.16;5017058;28;45885;-86
2022/01/15 00:53:00;;;;;;;;;119.33;104.67;;;;;6.86;60.99;102735.13;5023187;28;45480;-86
2022/01/15 00:55:25;;;;;;;;;118.00;111.67;;;;;6.07;60.96;102599.72;5022082;28;45395;-86
2022/01/15 00:57:50;;;;;;;;;110.00;103.67;;;;;6.52;60.99;102685.53;5023171;28;46550;-86
2022/01/15 01:00:20;;;;;;;;;124.67;106.00;;;;;6.48;61.30;102673.16;5018662;28;50400;-86
2022/01/15 01:02:46;;;;;;;;;109.00;96.00;;;;;6.75;61.31;102738.63;5036994;28;45752;-86
2022/01/15 01:05:12;;;;;;;;;109.67;104.00;;;;;6.38;61.35;102654.59;5019719;28;45719;-86
2022/01/15 01:07:38;;;;;;;;;113.33;103.67;;;;;6.65;61.35;102699.75;5036681;28;45505;-86
2022/01/15 01:23:21;;;;;;;;;96.33;90.67;;;;;6.06;61.10;102597.06;5036731;28;45347;-86
2022/01/15 01:25:50;;;;;;;;;96.33;89.67;;;;;6.32;61.25;102644.81;5019365;28;45641;-86
2022/01/15 01:28:42;;;;;;;;;106.67;93.67;;;;;6.49;61.18;102679.38;5015313;28;47127;-86
2022/01/15 01:33:35;;;;;;;;;104.50;89.25;;;;;6.34;61.22;102667.81;5030850;28;45399;-85
2022/01/15 01:38:52;;;;;;;;;85.75;75.00;;;;;6.44;61.50;102684.63;5031219;28;45332;-86
2022/01/15 01:41:21;;;;;;;;;100.67;94.00;;;;;6.09;61.29;102634.16;5037083;28;45486;-85
2022/01/15 01:43:53;;;;;;;;;109.67;99.00;;;;;5.77;61.45;102573.94;5036107;28;45355;-86
2022/01/15 01:48:52;;;;;;;;;99.00;86.33;;;;;6.13;61.49;102635.91;5057812;28;46089;-86
2022/01/15 01:51:25;;;;;;;;;98.67;87.00;;;;;6.45;61.28;102691.69;5050701;28;45477;-86
2022/01/15 01:53:52;;;;;;;;;91.25;83.75;;;;;6.07;61.24;102627.97;5041211;28;45647;-86
2022/01/15 01:56:19;;;;;;;;;96.75;91.75;;;;;6.43;61.81;102687.25;5043417;28;45594;-86
2022/01/15 01:58:45;;;;;;;;;92.75;84.50;;;;;5.97;61.69;102611.16;5044905;28;47461;-86
2022/01/15 02:01:10;;;;;;;;;85.25;74.25;;;;;5.78;61.71;102580.09;5062125;28;45667;-86
2022/01/15 02:03:36;;;;;;;;;90.75;85.00;;;;;6.15;61.44;102630.63;5062495;28;45592;-86
2022/01/15 02:06:01;;;;;;;;;92.00;80.25;;;;;6.03;61.54;102611.16;5063836;28;45371;-86
2022/01/15 02:08:27;;;;;;;;;90.00;81.00;;;;;6.02;62.12;102606.75;5062958;28;48154;-86
2022/01/15 02:10:54;;;;;;;;;90.25;83.75;;;;;6.15;61.95;102636.81;5062514;28;45502;-86
2022/01/15 02:13:19;;;;;;;;;86.25;78.75;;;;;6.12;61.51;102637.69;5043185;28;45404;-85
2022/01/15 02:15:44;;;;;;;;;87.75;72.50;;;;;6.28;61.57;102664.25;5050621;28;45558;-86
2022/01/15 02:18:11;;;;;;;;;89.25;79.75;;;;;5.92;61.86;102597.84;5042608;28;45741;-85
2022/01/15 02:21:01;;;;;;;;;93.00;85.25;;;;;6.24;62.00;102646.56;5043169;28;45368;-85
2022/01/15 02:23:36;;;;;;;;;92.50;81.75;;;;;6.29;61.41;102660.72;5048313;28;45408;-86
2022/01/15 02:26:05;;;;;;;;;90.50;83.75;;;;;6.34;61.70;102672.22;5063636;28;45328;-86
2022/01/15 02:28:36;;;;;;;;;88.50;79.00;;;;;6.31;61.85;102672.19;5044260;28;45539;-86
2022/01/15 02:31:07;;;;;;;;;89.50;80.00;;;;;5.98;61.47;102604.09;5062088;28;45527;-85
2022/01/15 02:33:34;;;;;;;;;87.75;77.75;;;;;6.18;61.91;102635.94;5060298;28;45538;-86
2022/01/15 02:36:01;;;;;;;;;93.50;84.00;;;;;5.89;61.60;102589.88;5063487;28;45577;-86
2022/01/15 02:38:26;;;;;;;;;91.75;85.00;;;;;5.97;61.60;102605.84;5051744;28;48056;-86
2022/01/15 02:40:52;;;;;;;;;90.00;85.75;;;;;6.21;61.58;102634.19;5062505;28;45332;-86
2022/01/15 02:43:27;;;;;;;;;93.00;86.25;;;;;5.47;61.61;102521.75;5061300;28;45404;-86
2022/01/15 02:45:57;;;;;;;;;88.50;79.75;;;;;5.92;61.41;102603.16;5061496;28;45411;-86
2022/01/15 02:48:25;;;;;;;;;89.25;81.00;;;;;6.07;61.51;102620.91;5061681;28;45450;-85
2022/01/15 02:50:51;;;;;;;;;87.25;74.75;;;;;6.20;61.76;102644.78;5044208;28;45304;-86
2022/01/15 02:53:16;;;;;;;;;86.25;77.25;;;;;6.20;61.54;102647.44;5039610;28;50359;-86
2022/01/15 02:55:43;;;;;;;;;87.50;78.00;;;;;5.55;61.31;102537.66;5062500;28;45596;-86
2022/01/15 02:58:09;;;;;;;;;88.75;79.75;;;;;5.88;61.50;102584.59;5051540;28;47996;-85
2022/01/15 03:00:36;;;;;;;;;87.25;75.50;;;;;6.15;61.42;102633.28;5042818;28;45348;-86
2022/01/15 03:03:01;;;;;;;;;88.50;77.50;;;;;5.70;61.77;102543.03;5037578;28;45387;-86
2022/01/15 03:05:27;;;;;;;;;91.25;81.00;;;;;6.15;60.96;102625.34;5059497;28;45481;-86
2022/01/15 03:07:52;;;;;;;;;87.75;79.50;;;;;5.71;61.26;102563.31;5059050;28;45447;-86
2022/01/15 03:10:18;;;;;;;;;86.25;77.75;;;;;6.00;61.52;102616.44;5040824;28;45730;-86
2022/01/15 03:12:46;;;;;;;;;87.50;79.75;;;;;5.81;61.18;102583.69;5058814;28;45870;-86
2022/01/15 03:15:17;;;;;;;;;89.00;78.50;;;;;6.02;61.64;102624.41;5057524;28;45383;-86
2022/01/15 03:17:43;;;;;;;;;88.50;75.50;;;;;5.82;61.60;102596.00;5037742;28;47340;-86
2022/01/15 03:20:09;;;;;;;;;91.75;82.75;;;;;5.66;61.78;102562.41;5038922;28;45392;-86
2022/01/15 03:22:34;;;;;;;;;96.25;85.25;;;;;5.18;61.74;102498.66;5049867;28;45296;-86
2022/01/15 03:24:59;;;;;;;;;91.00;87.00;;;;;5.65;61.48;102568.59;5046389;28;45227;-86
2022/01/15 03:27:25;;;;;;;;;101.25;88.25;;;;;5.74;61.85;102579.22;5057462;28;45519;-85
2022/01/15 03:29:51;;;;;;;;;91.75;84.50;;;;;5.38;61.80;102519.03;5057812;28;45297;-86
2022/01/15 03:32:17;;;;;;;;;99.50;79.25;;;;;5.76;61.54;102582.75;5040806;28;45544;-85
2022/01/15 03:34:42;;;;;;;;;97.75;89.50;;;;;5.38;61.75;102514.63;5058656;28;45262;-86
2022/01/15 03:37:08;;;;;;;;;96.00;86.75;;;;;5.91;62.16;102600.47;5040195;28;46311;-86
2022/01/15 03:39:35;;;;;;;;;90.25;85.50;;;;;5.78;61.72;102590.69;5057787;28;45411;-86
2022/01/15 03:42:02;;;;;;;;;99.50;92.00;;;;;5.90;61.74;102596.97;5040527;28;46526;-86
2022/01/15 03:44:27;;;;;;;;;82.50;63.75;;;;;5.59;61.89;102545.59;5058098;28;46688;-86
2022/01/15 03:46:52;;;;;;;;;94.00;82.50;;;;;5.61;61.37;102553.56;5048976;28;45475;-86
2022/01/15 03:49:18;;;;;;;;;93.00;83.25;;;;;5.59;61.65;102547.38;5057612;28;45351;-85
2022/01/15 03:51:43;;;;;;;;;97.00;88.25;;;;;5.26;61.21;102491.63;5051396;28;45363;-85
2022/01/15 03:54:09;;;;;;;;;87.25;78.50;;;;;5.38;61.78;102509.34;5045905;28;45543;-86
2022/01/15 03:56:34;;;;;;;;;89.00;77.00;;;;;5.80;61.61;102579.25;5057915;28;46278;-86
2022/01/15 03:58:59;;;;;;;;;90.00;81.75;;;;;5.59;61.57;102540.31;5053350;28;45429;-86
2022/01/15 04:01:25;;;;;;;;;88.50;79.00;;;;;5.12;61.88;102452.78;5058576;28;45391;-85
2022/01/15 04:03:50;;;;;;;;;90.25;83.75;;;;;5.60;61.99;102541.22;5058241;28;45629;-86
2022/01/15 04:06:15;;;;;;;;;96.25;84.50;;;;;5.45;61.50;102512.91;5058326;28;45624;-86
2022/01/15 04:08:43;;;;;;;;;88.75;75.00;;;;;5.67;61.65;102548.31;5039261;28;45592;-86
2022/01/15 04:11:09;;;;;;;;;89.25;77.00;;;;;5.58;61.40;102535.03;5055863;28;45521;-86
2022/01/15 04:13:34;;;;;;;;;97.00;86.75;;;;;5.67;61.61;102562.44;5057677;28;45648;-86
2022/01/15 04:16:00;;;;;;;;;89.00;79.00;;;;;5.08;61.65;102446.63;5042761;28;48535;-86
2022/01/15 04:18:28;;;;;;;;;91.00;79.00;;;;;5.04;61.62;102447.47;5057727;28;45316;-84
2022/01/15 04:20:53;;;;;;;;;90.75;80.50;;;;;4.83;61.62;102412.09;5040781;28;45718;-85
2022/01/15 04:23:19;;;;;;;;;94.00;79.75;;;;;5.66;61.85;102555.34;5056270;28;45893;-84
2022/01/15 04:25:44;;;;;;;;;82.50;73.25;;;;;5.48;61.79;102512.94;5039766;28;48411;-85
2022/01/15 04:28:11;;;;;;;;;91.75;81.50;;;;;5.12;61.88;102450.16;5044488;28;45531;-84
2022/01/15 04:30:41;;;;;;;;;88.50;77.75;;;;;5.12;61.78;102455.44;5049288;28;45621;-84
2022/01/15 04:33:07;;;;;;;;;88.25;78.50;;;;;5.66;61.85;102544.75;5058509;28;45443;-85
2022/01/15 04:35:32;;;;;;;;;89.25;77.25;;;;;5.37;62.18;102494.34;5039510;28;48107;-85
2022/01/15 04:38:06;;;;;;;;;86.75;76.50;;;;;5.22;61.88;102471.38;5055824;28;45365;-85
2022/01/15 04:40:31;;;;;;;;;86.00;75.75;;;;;5.15;61.90;102464.28;5058057;28;45575;-85
2022/01/15 04:42:57;;;;;;;;;86.25;72.50;;;;;4.73;61.84;102386.50;5026883;28;45400;-84
2022/01/15 04:45:22;;;;;;;;;83.00;72.00;;;;;5.17;61.84;102470.44;5057468;28;45346;-84
2022/01/15 04:47:47;;;;;;;;;87.75;76.50;;;;;5.39;61.89;102505.84;5056984;28;45567;-84
2022/01/15 04:50:16;;;;;;;;;85.75;74.25;;;;;4.94;61.74;102427.13;5038351;28;45402;-83
2022/01/15 04:52:42;;;;;;;;;84.75;73.25;;;;;5.24;61.71;102480.19;5057103;28;45539;-83
2022/01/15 04:55:09;;;;;;;;;86.00;70.00;;;;;5.46;62.22;102512.94;5055007;28;45463;-83
2022/01/15 04:57:35;;;;;;;;;82.00;67.25;;;;;5.20;62.01;102474.88;5055346;28;45564;-83
2022/01/15 05:00:01;;;;;;;;;87.50;75.25;;;;;5.20;61.91;102477.53;5056836;28;45550;-84
2022/01/15 05:02:26;;;;;;;;;87.00;75.75;;;;;4.53;61.95;102365.22;5057904;28;45491;-84
2022/01/15 05:04:51;;;;;;;;;88.25;74.00;;;;;5.08;61.85;102455.41;5056237;28;45469;-83
2022/01/15 05:07:17;;;;;;;;;88.00;74.75;;;;;5.14;61.93;102465.13;5039297;28;45660;-84
2022/01/15 05:09:43;;;;;;;;;84.50;71.75;;;;;4.98;61.78;102450.03;5056917;28;45536;-84
2022/01/15 05:12:12;;;;;;;;;91.00;81.25;;;;;4.86;62.37;102413.84;5057861;28;45372;-83
2022/01/15 05:14:38;;;;;;;;;82.75;67.25;;;;;5.29;61.99;102490.78;5038630;28;47228;-83
2022/01/15 05:17:03;;;;;;;;;80.75;65.25;;;;;5.37;62.54;102518.16;5048469;28;45368;-83
2022/01/15 05:19:29;;;;;;;;;87.25;74.00;;;;;5.09;62.04;102461.59;5034048;28;45363;-84
2022/01/15 05:21:56;;;;;;;;;85.75;73.00;;;;;5.14;62.14;102472.19;5051514;28;45649;-83
2022/01/15 05:24:22;;;;;;;;;86.50;72.50;;;;;5.41;62.49;102506.72;5043988;28;45277;-83
2022/01/15 05:26:48;;;;;;;;;87.75;75.00;;;;;5.23;62.82;102483.69;5033607;28;45535;-83
2022/01/15 05:29:13;;;;;;;;;85.25;73.50;;;;;5.44;62.84;102519.09;5056917;28;45558;-83
2022/01/15 05:31:39;;;;;;;;;85.50;73.25;;;;;5.07;62.90;102461.56;5056683;28;45483;-83
2022/01/15 05:34:04;;;;;;;;;88.25;81.00;;;;;5.52;62.78;102535.88;5038748;28;47304;-85
2022/01/15 05:36:30;;;;;;;;;87.00;74.50;;;;;5.31;62.52;102507.53;5037387;28;45821;-85
2022/01/15 05:38:56;;;;;;;;;87.75;73.25;;;;;4.96;62.99;102436.81;5055545;28;45316;-85
2022/01/15 05:41:21;;;;;;;;;85.75;73.25;;;;;5.41;62.43;102511.16;5056931;28;45425;-85
2022/01/15 05:43:47;;;;;;;;;85.75;70.25;;;;;5.38;62.34;102497.88;5056133;28;45589;-85
2022/01/15 05:46:12;;;;;;;;;76.50;62.50;;;;;4.81;62.33;102413.81;5040235;28;45643;-85
2022/01/15 05:48:37;;;;;;;;;81.75;66.25;;;;;5.23;61.96;102501.31;5055171;28;45513;-85
2022/01/15 05:51:03;;;;;;;;;83.25;68.00;;;;;4.82;62.26;102426.19;5055617;28;45676;-85
2022/01/15 05:53:28;;;;;;;;;83.50;69.75;;;;;4.83;62.00;102424.41;5056728;28;45585;-85
2022/01/15 05:55:53;;;;;;;;;83.75;69.50;;;;;5.10;62.19;102473.91;5056257;28;45513;-86
2022/01/15 05:58:19;;;;;;;;;83.50;69.00;;;;;5.48;62.51;102549.97;5057075;28;45431;-82
2022/01/15 06:00:44;;;;;;;;;84.25;71.25;;;;;5.12;62.51;102487.16;5055814;28;45523;-84
2022/01/15 06:03:09;;;;;;;;;83.25;69.25;;;;;4.78;62.13;102434.94;5056787;28;45524;-85
2022/01/15 06:05:35;;;;;;;;;80.00;65.00;;;;;5.25;61.78;102511.03;5056853;28;45502;-85
2022/01/15 06:08:00;;;;;;;;;87.50;74.00;;;;;4.75;61.78;102427.00;5056532;28;45551;-85
2022/01/15 06:10:25;;;;;;;;;75.75;60.00;;;;;4.97;62.33;102466.78;5051733;28;45471;-85
2022/01/15 06:12:50;;;;;;;;;81.50;67.00;;;;;5.07;62.02;102484.47;5036279;28;45546;-85
2022/01/15 06:15:16;;;;;;;;;87.00;71.50;;;;;5.42;62.13;102544.63;5035354;28;45475;-85
2022/01/15 06:17:43;;;;;;;;;82.50;69.75;;;;;5.04;62.05;102501.19;5035210;28;45411;-85
2022/01/15 06:20:10;;;;;;;;;84.25;69.00;;;;;5.37;61.69;102538.44;5036881;28;45483;-85
2022/01/15 06:22:36;;;;;;;;;86.50;72.50;;;;;5.23;61.59;102515.41;5036353;28;46179;-85
2022/01/15 06:25:03;;;;;;;;;87.25;70.25;;;;;5.38;61.52;102533.13;5034637;28;45378;-85
2022/01/15 06:27:29;;;;;;;;;84.75;67.25;;;;;5.38;62.06;102533.13;5035326;28;45453;-85
2022/01/15 06:29:56;;;;;;;;;80.75;65.00;;;;;5.21;61.51;102495.13;5036589;28;45526;-85
2022/01/15 06:32:22;;;;;;;;;76.00;58.75;;;;;5.07;61.44;102477.41;5036183;28;46210;-85
2022/01/15 06:34:47;;;;;;;;;80.25;63.25;;;;;4.90;61.39;102455.28;5037481;28;45241;-85
2022/01/15 06:37:13;;;;;;;;;85.50;70.25;;;;;5.08;61.72;102487.13;5038598;28;45326;-85
2022/01/15 06:39:38;;;;;;;;;83.50;69.25;;;;;5.00;61.57;102470.31;5038513;28;45453;-85
2022/01/15 06:42:04;;;;;;;;;81.00;66.50;;;;;4.95;61.79;102463.25;5051001;28;46458;-85
2022/01/15 06:44:29;;;;;;;;;81.00;65.00;;;;;4.79;61.59;102435.81;5059669;28;45367;-85
2022/01/15 06:46:55;;;;;;;;;84.25;72.00;;;;;5.15;61.15;102497.72;5048283;28;45498;-85
2022/01/15 06:49:21;;;;;;;;;84.00;65.75;;;;;5.20;61.71;102498.66;5039891;28;45542;-85
2022/01/15 06:51:46;;;;;;;;;82.75;69.75;;;;;4.93;61.53;102457.94;5020918;28;47227;-85
2022/01/15 06:54:12;;;;;;;;;82.00;64.75;;;;;5.06;61.24;102470.38;5021313;28;45492;-85
2022/01/15 06:56:38;;;;;;;;;84.25;69.25;;;;;4.78;61.55;102427.03;5039654;28;45421;-85
2022/01/15 06:59:03;;;;;;;;;82.25;67.00;;;;;5.00;61.60;102467.69;5021701;28;45503;-85
2022/01/15 07:01:29;;;;;;;;;78.25;59.50;;;;;4.73;61.45;102410.25;5039435;28;45434;-85
2022/01/15 07:03:54;;;;;;;;;83.25;69.50;;;;;5.05;61.23;102465.06;5039282;28;45398;-85
2022/01/15 07:06:19;;;;;;;;;82.50;66.75;;;;;4.71;61.24;102412.00;5038577;28;45399;-85
2022/01/15 07:08:45;;;;;;;;;79.75;65.75;;;;;4.76;61.29;102417.31;5021076;28;45669;-85
2022/01/15 07:11:10;;;;;;;;;82.25;64.75;;;;;4.98;61.30;102444.75;5038910;28;47155;-84
2022/01/15 07:13:35;;;;;;;;;81.50;62.75;;;;;4.71;61.23;102390.88;5039241;28;45403;-85
2022/01/15 07:16:01;;;;;;;;;81.25;67.25;;;;;5.03;61.49;102459.78;5039259;28;45477;-85
2022/01/15 07:18:26;;;;;;;;;84.75;68.50;;;;;4.89;61.48;102427.06;5021708;28;45375;-85
2022/01/15 07:20:52;;;;;;;;;81.00;65.25;;;;;5.26;61.42;102501.34;5038834;28;45451;-85
2022/01/15 07:23:18;;;;;;;;;84.75;72.50;;;;;5.15;61.35;102472.22;5038788;28;45502;-85
2022/01/15 07:25:43;;;;;;;;;85.75;69.75;;;;;5.15;61.41;102476.59;5021315;28;45383;-85
2022/01/15 07:28:08;;;;;;;;;78.75;62.00;;;;;4.78;61.33;102413.81;5039198;28;45484;-85
2022/01/15 07:30:35;;;;;;;;;85.25;71.75;;;;;4.85;61.52;102420.03;5038846;28;45473;-85
2022/01/15 07:33:00;;;;;;;;;83.50;69.00;;;;;5.14;61.42;102467.78;5038862;28;45240;-85
2022/01/15 07:35:26;;;;;;;;;79.25;66.00;;;;;4.90;61.39;102418.31;5039112;28;45316;-85
2022/01/15 07:37:51;;;;;;;;;81.75;64.75;;;;;5.00;61.16;102432.44;5038283;28;45699;-85
2022/01/15 07:40:16;;;;;;;;;81.75;70.00;;;;;4.67;61.69;102388.19;5020714;28;47208;-85
2022/01/15 07:42:42;;;;;;;;;79.00;65.25;;;;;4.98;61.58;102429.78;5038638;28;45419;-85
2022/01/15 07:45:10;;;;;;;;;81.50;68.00;;;;;4.87;61.38;102402.44;5038630;28;45861;-85
2022/01/15 07:47:37;;;;;;;;;83.50;68.75;;;;;5.38;60.91;102496.13;5055427;28;45435;-84
2022/01/15 07:50:05;;;;;;;;;77.75;64.75;;;;;5.18;61.08;102466.06;5058875;28;46155;-85
2022/01/15 07:52:30;;;;;;;;;80.75;67.25;;;;;5.14;61.30;102465.13;5040644;28;45888;-85
2022/01/15 07:54:58;;;;;;;;;82.50;66.75;;;;;5.17;61.24;102459.84;5040770;28;45262;-85
2022/01/15 07:57:24;;;;;;;;;84.00;67.00;;;;;5.25;61.65;102470.50;5046384;28;45602;-85
2022/01/15 07:59:50;;;;;;;;;83.75;69.00;;;;;5.14;61.76;102446.63;5056911;28;46700;-84
2022/01/15 08:02:16;;;;;;;;;87.25;74.00;;;;;4.76;61.29;102390.91;5066787;28;45712;-85
2022/01/15 08:04:42;;;;;;;;;80.00;65.25;;;;;4.59;61.65;102353.81;5065745;28;45491;-84
2022/01/15 08:07:09;;;;;;;;;82.25;65.25;;;;;5.44;61.85;102493.53;5056999;28;46141;-84
2022/01/15 08:09:37;;;;;;;;;85.25;71.25;;;;;4.95;61.80;102402.47;5039671;28;47441;-84
2022/01/15 08:12:04;;;;;;;;;88.25;78.25;;;;;5.46;61.53;102483.84;5058192;28;45380;-84
2022/01/15 08:14:29;;;;;;;;;81.75;67.75;;;;;5.08;61.80;102413.13;5039784;28;45424;-85
2022/01/15 08:16:55;;;;;;;;;86.50;73.50;;;;;4.88;61.79;102367.22;5058600;28;45518;-85
2022/01/15 08:19:20;;;;;;;;;86.50;72.25;;;;;5.04;61.65;102402.53;5058169;28;46519;-85
2022/01/15 08:21:46;;;;;;;;;86.25;76.25;;;;;5.43;61.86;102459.13;5057924;28;45635;-84
2022/01/15 08:24:11;;;;;;;;;89.00;81.25;;;;;5.18;61.80;102413.19;5040239;28;45615;-85
2022/01/15 08:26:36;;;;;;;;;99.00;86.67;;;;;4.83;61.50;102324.91;5058372;28;45447;-85
2022/01/15 08:29:03;;;;;;;;;104.00;92.00;;;;;4.72;61.64;102317.81;5039730;28;46915;-85
2022/01/15 08:31:28;;;;;;;;;94.33;82.33;;;;;4.93;61.40;102341.69;5039768;28;45191;-85
2022/01/15 08:33:54;;;;;;;;;89.50;77.00;;;;;5.37;61.68;102425.63;5058098;28;45585;-85
2022/01/15 08:36:20;;;;;;;;;81.00;65.50;;;;;5.33;61.75;102420.31;5051324;28;45379;-85
2022/01/15 08:38:46;;;;;;;;;79.00;66.25;;;;;5.67;61.54;102456.63;5056818;28;46212;-85
2022/01/15 08:41:14;;;;;;;;;83.50;71.25;;;;;5.17;61.78;102369.13;5057530;28;45339;-85
2022/01/15 08:43:41;;;;;;;;;80.00;65.25;;;;;5.80;61.60;102485.75;5039584;28;45652;-84
2022/01/15 08:46:06;;;;;;;;;100.33;87.67;;;;;5.46;61.69;102419.50;5040586;28;45589;-84
2022/01/15 08:48:32;;;;;;;;;88.25;81.75;;;;;5.89;61.59;102491.09;5057388;28;45432;-84
2022/01/15 08:50:57;;;;;;;;;86.00;76.50;;;;;5.36;61.28;102397.44;5057310;28;45426;-84
2022/01/15 08:53:22;;;;;;;;;97.33;87.00;;;;;5.64;61.42;102443.38;5057801;28;45410;-84
2022/01/15 08:55:48;;;;;;;;;87.50;74.50;;;;;5.97;61.17;102500.00;5058029;28;45393;-85
2022/01/15 08:58:14;;;;;;;;;86.50;73.75;;;;;5.78;61.36;102456.63;5052334;28;47357;-85
2022/01/15 09:00:40;;;;;;;;;72.25;56.25;;;;;6.03;61.31;102488.53;5057427;28;45388;-85
2022/01/15 09:03:07;;;;;;;;;95.67;85.00;;;;;6.04;61.50;102490.28;5057725;28;45350;-85
2022/01/15 09:05:34;;;;;;;;;92.33;85.00;;;;;5.64;61.20;102423.97;5055692;28;45699;-84
2022/01/15 09:07:59;;;;;;;;;116.67;103.00;;;;;5.85;61.58;102450.53;5055804;28;47164;-84
2022/01/15 09:10:25;;;;;;;;;93.00;85.67;;;;;5.87;60.89;102439.91;5056246;28;45379;-85
2022/01/15 09:12:50;;;;;;;;;103.67;86.33;;;;;6.04;61.33;102464.72;5055838;28;45378;-84
2022/01/15 09:15:16;;;;;;;;;102.33;91.00;;;;;5.68;60.68;102394.00;5057475;28;45300;-84
2022/01/15 09:17:42;;;;;;;;;88.00;78.25;;;;;5.89;60.85;102423.16;5054477;28;46378;-84
2022/01/15 09:20:08;;;;;;;;;90.25;78.50;;;;;6.25;60.71;102487.72;5057399;28;45414;-84
2022/01/15 09:22:33;;;;;;;;;81.75;67.75;;;;;6.28;60.46;102482.41;5057022;28;45340;-84
2022/01/15 09:25:00;;;;;;;;;89.00;78.50;;;;;6.17;60.72;102446.22;5057503;28;45280;-85
2022/01/15 09:30:12;;;;;;;;;93.00;85.25;;;;;6.06;60.79;102414.41;5057106;28;45556;-85
2022/01/15 09:32:53;;;;;;;;;89.25;77.25;;;;;5.95;60.33;102390.59;5053382;28;45562;-85
2022/01/15 09:35:21;;;;;;;;;87.00;79.50;;;;;6.62;60.83;102493.06;5052746;28;45359;-87
2022/01/15 09:37:47;;;;;;;;;87.00;81.50;;;;;6.69;60.45;102494.81;5052322;28;46564;-86
2022/01/15 09:43:38;;;;;;;;;88.50;78.50;;;;;6.81;60.77;102478.03;4974896;28;45480;-81
2022/01/15 09:46:25;;;;;;;;;;;;;;;;;;;;;
2022/01/15 09:48:50;;;;;;;;;91.00;82.50;;;;;6.45;59.69;102387.09;4967258;28;75264;-80
2022/01/15 09:51:16;;;;;;;;;90.00;80.00;;;;;6.28;59.57;102343.84;4976829;28;45502;-81
2022/01/15 09:53:42;;;;;;;;;84.50;74.25;;;;;7.09;60.36;102468.28;4974611;28;45491;-80
2022/01/15 09:56:09;;;;;;;;;85.00;77.75;;;;;7.05;59.68;102447.13;4973470;28;45639;-84
2022/01/15 09:58:34;;;;;;;;;87.50;79.75;;;;;7.27;59.52;102472.69;4971737;28;46648;-84
2022/01/15 10:01:01;;;;;;;;;98.75;88.25;;;;;7.04;59.33;102418.84;4980887;28;45594;-86
2022/01/15 10:03:27;;;;;;;;;100.00;89.75;;;;;6.14;58.86;102256.50;4977920;28;45487;-89
2022/01/15 10:05:53;;;;;;;;;94.75;84.50;;;;;7.04;58.59;102390.53;4972358;28;45536;-86
2022/01/15 10:08:20;;;;;;;;;100.67;90.67;;;;;6.59;58.69;102327.94;4971562;28;46110;-81
2022/01/15 10:10:50;;;;;;;;;97.75;87.25;;;;;7.61;58.67;102478.81;4971476;28;45473;-81
2022/01/15 10:13:24;;;;;;;;;104.00;97.00;;;;;7.67;58.69;102480.53;4952639;28;45549;-84
2022/01/15 10:15:55;;;;;;;;;99.00;93.00;;;;;7.74;58.37;102473.44;4976239;28;45627;-83
2022/01/15 10:18:26;;;;;;;;;101.00;93.00;;;;;7.04;58.08;102339.31;4977382;28;46554;-85
2022/01/15 10:20:56;;;;;;;;;96.67;90.33;;;;;7.09;58.66;102354.28;5043664;28;45439;-89
2022/01/15 10:23:23;;;;;;;;;103.00;92.33;;;;;7.64;58.33;102432.78;5051055;28;45849;-81
2022/01/15 10:26:16;;;;;;;;;106.67;90.00;;;;;7.93;58.16;102479.53;5057948;28;45514;-82
2022/01/15 10:28:57;;;;;;;;;98.67;89.33;;;;;6.91;58.78;102291.63;5046443;28;46087;-86
2022/01/15 10:31:29;;;;;;;;;99.67;92.33;;;;;8.08;58.75;102463.53;5055362;28;45405;-82
2022/01/15 10:33:57;;;;;;;;;103.33;90.33;;;;;7.90;58.29;102418.50;5057942;28;45306;-83
2022/01/15 10:36:45;;;;;;;;;98.00;93.67;;;;;8.25;58.05;102459.00;5058085;28;45796;-82
2022/01/15 10:39:16;;;;;;;;;102.33;92.00;;;;;7.64;57.71;102339.03;5058559;28;45529;-82
2022/01/15 10:41:41;;;;;;;;;88.33;84.33;;;;;8.03;58.80;102385.69;5054390;28;46227;-82
2022/01/15 10:44:31;;;;;;;;;110.67;97.00;;;;;8.41;57.92;102448.31;5058129;28;45966;-83
2022/01/15 10:47:07;;;;;;;;;105.33;99.00;;;;;8.05;57.56;102365.28;5058613;28;45544;-82
2022/01/15 10:49:35;;;;;;;;;109.00;97.33;;;;;8.48;57.42;102420.81;5055948;28;45539;-82
2022/01/15 10:52:11;;;;;;;;;107.33;97.33;;;;;8.59;57.82;102434.91;5058825;28;45435;-82
2022/01/15 10:55:16;;;;;;;;;112.33;103.00;;;;;8.52;57.61;102405.69;5058457;28;45423;-83
2022/01/15 10:57:53;;;;;;;;;102.00;91.33;;;;;8.76;57.16;102433.88;5041687;28;45379;-82
2022/01/15 11:00:42;;;;;;;;;93.25;86.25;;;;;8.80;56.68;102433.81;5058806;28;45556;-82
2022/01/15 11:03:16;;;;;;;;;96.50;88.50;;;;;8.66;56.52;102398.47;5054010;28;45443;-82
2022/01/15 11:05:46;;;;;;;;;86.00;81.00;;;;;8.88;56.91;102437.28;5053864;28;45326;-85
2022/01/15 11:08:27;;;;;;;;;84.00;77.50;;;;;8.43;57.50;102354.41;5055653;28;45557;-85
2022/01/15 11:10:56;;;;;;;;;103.00;96.33;;;;;8.92;57.99;102435.50;5058476;28;46452;-85
2022/01/15 11:13:25;;;;;;;;;103.67;96.33;;;;;8.96;58.04;102431.00;5054895;28;45450;-85
2022/01/15 11:15:57;;;;;;;;;108.33;99.67;;;;;8.99;58.01;102423.91;5051702;28;45376;-85
2022/01/15 11:18:28;;;;;;;;;107.67;101.00;;;;;9.03;57.52;102424.72;5057766;28;45635;-85
2022/01/15 11:21:03;;;;;;;;;99.33;92.33;;;;;8.69;57.44;102353.28;5050209;28;45481;-89
2022/01/15 11:23:30;;;;;;;;;95.50;85.00;;;;;9.11;57.77;102411.34;5057660;28;45259;-87
2022/01/15 11:25:58;;;;;;;;;101.67;90.33;;;;;9.14;57.64;102406.88;5056358;28;46542;-85
2022/01/15 11:28:27;;;;;;;;;93.00;87.50;;;;;9.19;57.68;102404.16;5058725;28;45514;-85
2022/01/15 11:30:55;;;;;;;;;90.50;84.00;;;;;9.22;57.47;102404.13;5057504;28;45647;-84
2022/01/15 11:33:24;;;;;;;;;94.75;86.00;;;;;9.17;58.01;102380.22;5055172;28;45415;-85
2022/01/15 11:35:51;;;;;;;;;90.00;81.50;;;;;9.11;56.69;102369.69;5054308;28;45467;-85
2022/01/15 11:38:41;;;;;;;;;89.25;84.50;;;;;9.33;57.43;102391.59;5049844;28;45405;-88
2022/01/15 11:41:25;;;;;;;;;93.00;87.50;;;;;9.40;56.34;102390.59;5044488;28;47380;-92
2022/01/15 11:43:51;;;;;;;;;101.25;86.50;;;;;9.22;56.26;102358.91;5040896;28;46504;-85
2022/01/15 11:46:28;;;;;;;;;96.25;89.25;;;;;9.52;55.91;102385.13;5046047;28;45429;-85